Terminal Aerodrome Forecast
Issued by NWS Dodge City, KS

Home | Current Version | Previous Version | Text Only | Print | Product List | Glossary On
Versions: 1 2 3 4 5 6 7 8 9 10 11 12 13 14 15 16 17 18 19 20 21 22 23 24 25 26 27 28 29 30 31 32 33
000
FTUS43 KDDC 220500
TAFDDC
TAF
KDDC 220525Z 2206/2306 24012KT P6SM FEW100 BKN250
     FM220800 22010KT P6SM BKN250
     FM221500 19015G23KT P6SM SCT090
     FM230100 17007KT P6SM SCT250=

USA.gov is the U.S. government's official web portal to all federal, state and local government web resources and services.